createdAt,value
2017-09-19T00:00:06.494Z,93.88
2017-09-19T00:00:32.645Z,94.17
2017-09-19T00:00:58.764Z,94.27
2017-09-19T00:01:24.878Z,93.88
2017-09-19T00:01:50.991Z,94.07
2017-09-19T00:02:17.104Z,93.7
2017-09-19T00:02:43.215Z,93.88
2017-09-19T00:03:09.332Z,93.79
2017-09-19T00:03:35.434Z,94.17
2017-09-19T00:04:01.558Z,93.98
2017-09-19T00:04:27.680Z,93.98
2017-09-19T00:04:53.794Z,94.07
2017-09-19T00:05:19.918Z,93.7
2017-09-19T00:05:46.024Z,93.79
2017-09-19T00:06:12.135Z,93.88
2017-09-19T00:06:38.257Z,93.88
2017-09-19T00:07:04.369Z,93.79
2017-09-19T00:07:30.482Z,93.6
2017-09-19T00:07:56.607Z,93.7
2017-09-19T00:08:22.714Z,93.98
2017-09-19T00:08:48.838Z,94.17
2017-09-19T00:09:14.943Z,93.88
2017-09-19T00:09:41.055Z,93.88
2017-09-19T00:10:07.179Z,93.98
2017-09-19T00:10:33.286Z,94.07
2017-09-19T00:10:59.414Z,93.88
2017-09-19T00:11:25.549Z,93.88
2017-09-19T00:11:51.634Z,93.7
2017-09-19T00:12:17.745Z,93.7
2017-09-19T00:12:43.864Z,93.7
2017-09-19T00:13:09.976Z,93.88
2017-09-19T00:13:36.100Z,93.7
2017-09-19T00:14:02.208Z,93.98
2017-09-19T00:14:28.331Z,93.98
2017-09-19T00:14:54.449Z,94.65
2017-09-19T00:15:20.577Z,94.46
2017-09-19T00:15:46.699Z,94.27
2017-09-19T00:16:12.831Z,94.65
2017-09-19T00:16:38.940Z,94.74
2017-09-19T00:17:05.063Z,94.74
2017-09-19T00:17:31.168Z,94.74
2017-09-19T00:17:57.293Z,94.74
2017-09-19T00:18:23.412Z,94.36
2017-09-19T00:18:49.523Z,94.27
2017-09-19T00:19:15.640Z,94.36
2017-09-19T00:19:41.752Z,95.03
2017-09-19T00:20:07.883Z,95.12
2017-09-19T00:20:34.004Z,94.84
2017-09-19T00:21:00.122Z,94.84
2017-09-19T00:21:26.227Z,95.12
2017-09-19T00:21:52.343Z,94.65
2017-09-19T00:22:18.461Z,94.46
2017-09-19T00:22:44.585Z,94.65
2017-09-19T00:23:10.703Z,94.74
2017-09-19T00:23:36.833Z,94.84
2017-09-19T00:24:02.941Z,94.84
2017-09-19T00:24:29.066Z,94.46
2017-09-19T00:24:55.188Z,94.55
2017-09-19T00:25:21.296Z,94.65
2017-09-19T00:25:47.418Z,94.46
2017-09-19T00:26:13.537Z,94.46
2017-09-19T00:26:39.664Z,94.84
2017-09-19T00:27:05.781Z,94.84
2017-09-19T00:27:31.889Z,94.74
2017-09-19T00:27:58.013Z,94.84
2017-09-19T00:28:24.121Z,95.03
2017-09-19T00:28:50.234Z,95.12
2017-09-19T00:29:16.345Z,95.12
2017-09-19T00:29:42.451Z,95.32
2017-09-19T00:30:08.568Z,94.84
2017-09-19T00:30:34.688Z,94.46
2017-09-19T00:31:00.814Z,94.46
2017-09-19T00:31:26.918Z,95.03
2017-09-19T00:31:53.041Z,94.74
2017-09-19T00:32:19.159Z,94.74
2017-09-19T00:32:45.270Z,94.36
2017-09-19T00:33:11.391Z,94.46
2017-09-19T00:33:37.503Z,94.84
2017-09-19T00:34:03.621Z,94.74
2017-09-19T00:34:29.725Z,94.74
2017-09-19T00:34:55.851Z,94.36
2017-09-19T00:35:21.957Z,94.55
2017-09-19T00:35:48.069Z,94.74
2017-09-19T00:36:14.186Z,94.74
2017-09-19T00:36:40.300Z,94.65
2017-09-19T00:37:06.424Z,94.74
2017-09-19T00:37:32.532Z,94.93
2017-09-19T00:37:58.654Z,95.03
2017-09-19T00:38:24.770Z,94.74
2017-09-19T00:38:50.878Z,94.74
2017-09-19T00:39:17.001Z,94.74
2017-09-19T00:39:43.108Z,94.84
2017-09-19T00:40:09.231Z,94.84
2017-09-19T00:40:35.343Z,94.93
2017-09-19T00:41:01.449Z,94.74
2017-09-19T00:41:27.572Z,94.84
2017-09-19T00:41:53.671Z,94.31
2017-09-19T00:42:19.784Z,94.7
2017-09-19T00:42:45.908Z,94.6
2017-09-19T00:43:12.024Z,93.93
2017-09-19T00:43:38.141Z,93.93
2017-09-19T00:44:04.285Z,93.98
2017-09-19T00:44:30.403Z,94.36
2017-09-19T00:44:56.517Z,94.17
2017-09-19T00:45:22.632Z,94.84
2017-09-19T00:45:48.737Z,94.65
2017-09-19T00:46:14.840Z,94.74
2017-09-19T00:46:40.965Z,94.65
2017-09-19T00:47:07.078Z,94.36
2017-09-19T00:47:33.197Z,94.55
2017-09-19T00:47:59.299Z,94.93
2017-09-19T00:48:25.438Z,94.74
2017-09-19T00:48:51.558Z,94.55
2017-09-19T00:49:17.681Z,94.93
2017-09-19T00:49:43.795Z,94.74
2017-09-19T00:50:09.916Z,94.46
2017-09-19T00:50:36.040Z,94.51
2017-09-19T00:51:02.159Z,94.41
2017-09-19T00:51:28.263Z,94.31
2017-09-19T00:51:54.380Z,93.98
2017-09-19T00:52:20.504Z,94.7
2017-09-19T00:52:46.609Z,94.6
2017-09-19T00:53:12.733Z,94.22
2017-09-19T00:53:38.838Z,94.6
2017-09-19T00:54:04.964Z,94.41
2017-09-19T00:54:31.090Z,94.12
2017-09-19T00:54:57.196Z,93.93
2017-09-19T00:55:23.319Z,94.12
2017-09-19T00:55:49.427Z,93.84
2017-09-19T00:56:15.577Z,93.84
2017-09-19T00:56:41.689Z,93.93
2017-09-19T00:57:07.799Z,94.02
2017-09-19T00:57:33.917Z,93.26
2017-09-19T00:58:00.024Z,93.84
2017-09-19T00:58:26.148Z,93.45
2017-09-19T00:58:52.256Z,93.65
2017-09-19T00:59:18.368Z,94.02
2017-09-19T00:59:44.490Z,93.93
2017-09-19T01:00:10.620Z,93.45
2017-09-19T01:00:36.746Z,93.55
2017-09-19T01:01:02.863Z,93.65
2017-09-19T01:01:28.978Z,93.74
2017-09-19T01:01:55.099Z,93.36
2017-09-19T01:02:21.223Z,93.65
2017-09-19T01:02:47.377Z,93.74
2017-09-19T01:03:13.485Z,92.97
2017-09-19T01:03:39.606Z,93.74
2017-09-19T01:04:05.725Z,93.84
2017-09-19T01:04:31.848Z,93.84
2017-09-19T01:04:57.970Z,93.36
2017-09-19T01:05:24.074Z,93.45
2017-09-19T01:05:50.194Z,93.74
2017-09-19T01:06:16.314Z,93.84
2017-09-19T01:06:42.420Z,93.36
2017-09-19T01:07:08.524Z,93.74
2017-09-19T01:07:34.642Z,93.26
2017-09-19T01:08:00.749Z,93.55
2017-09-19T01:08:26.876Z,93.93
2017-09-19T01:08:53.005Z,93.65
2017-09-19T01:09:19.112Z,93.45
2017-09-19T01:09:45.228Z,93.65
2017-09-19T01:10:11.341Z,93.36
2017-09-19T01:10:37.454Z,93.26
2017-09-19T01:11:03.573Z,93.36
2017-09-19T01:11:29.685Z,93.45
2017-09-19T01:11:55.807Z,93.65
2017-09-19T01:12:21.923Z,93.93
2017-09-19T01:12:48.031Z,94.02
2017-09-19T01:13:14.142Z,93.45
2017-09-19T01:13:40.248Z,93.84
2017-09-19T01:14:06.379Z,93.45
2017-09-19T01:14:32.493Z,93.45
2017-09-19T01:14:58.599Z,94.02
2017-09-19T01:15:24.723Z,94.12
2017-09-19T01:15:50.830Z,93.93
2017-09-19T01:16:16.953Z,94.02
2017-09-19T01:16:43.071Z,94.65
2017-09-19T01:17:09.178Z,94.51
2017-09-19T01:17:35.302Z,93.84
2017-09-19T01:18:01.409Z,93.93
2017-09-19T01:18:27.530Z,94.22
2017-09-19T01:18:53.644Z,94.6
2017-09-19T01:19:19.749Z,94.22
2017-09-19T01:19:45.872Z,94.79
2017-09-19T01:20:12.005Z,94.7
2017-09-19T01:20:38.109Z,94.31
2017-09-19T01:21:04.232Z,94.79
2017-09-19T01:21:30.341Z,94.89
2017-09-19T01:21:56.450Z,94.98
2017-09-19T01:22:22.567Z,94.79
2017-09-19T01:22:48.678Z,94.74
2017-09-19T01:23:14.799Z,94.51
2017-09-19T01:23:40.918Z,94.79
2017-09-19T01:24:07.024Z,94.98
2017-09-19T01:24:33.155Z,94.51
2017-09-19T01:24:59.261Z,94.7
2017-09-19T01:25:25.368Z,94.6
2017-09-19T01:25:51.489Z,94.55
2017-09-19T01:26:17.598Z,95.17
2017-09-19T01:26:43.719Z,94.98
2017-09-19T01:27:09.836Z,94.98
2017-09-19T01:27:35.943Z,95.07
2017-09-19T01:28:02.067Z,94.93
2017-09-19T01:28:28.195Z,95.17
2017-09-19T01:28:54.318Z,95.07
2017-09-19T01:29:20.428Z,95.22
2017-09-19T01:29:46.534Z,95.75
2017-09-19T01:30:12.663Z,95.36
2017-09-19T01:30:38.776Z,95.32
2017-09-19T01:31:04.884Z,94.89
2017-09-19T01:31:30.994Z,95.27
2017-09-19T01:31:57.111Z,94.79
2017-09-19T01:32:23.223Z,94.7
2017-09-19T01:32:49.341Z,94.7
2017-09-19T01:33:15.455Z,94.6
2017-09-19T01:33:41.577Z,94.98
2017-09-19T01:34:07.694Z,94.7
2017-09-19T01:34:33.800Z,94.98
2017-09-19T01:34:59.920Z,95.07
2017-09-19T01:35:26.034Z,94.51
2017-09-19T01:35:52.139Z,94.6
2017-09-19T01:36:18.263Z,94.41
2017-09-19T01:36:44.373Z,94.98
2017-09-19T01:37:10.495Z,94.51
2017-09-19T01:37:36.614Z,94.7
2017-09-19T01:38:02.722Z,94.41
2017-09-19T01:38:28.843Z,94.98
2017-09-19T01:38:54.960Z,94.89
2017-09-19T01:39:21.067Z,94.79
2017-09-19T01:39:47.196Z,94.51
2017-09-19T01:40:13.319Z,94.7
2017-09-19T01:40:39.440Z,94.79
2017-09-19T01:41:05.552Z,94.79
2017-09-19T01:41:31.657Z,94.79
2017-09-19T01:41:57.770Z,94.89
2017-09-19T01:42:23.894Z,95.07
2017-09-19T01:42:50.013Z,94.41
2017-09-19T01:43:16.149Z,94.31
2017-09-19T01:43:42.254Z,94.02
2017-09-19T01:44:08.378Z,93.74
2017-09-19T01:44:34.496Z,93.84
2017-09-19T01:45:00.602Z,93.45
2017-09-19T01:45:26.729Z,93.84
2017-09-19T01:45:52.845Z,93.84
2017-09-19T01:46:18.952Z,93.55
2017-09-19T01:46:45.069Z,93.65
2017-09-19T01:47:11.179Z,93.26
2017-09-19T01:47:37.285Z,93.36
2017-09-19T01:48:03.400Z,93.36
2017-09-19T01:48:29.519Z,93.45
2017-09-19T01:48:55.640Z,93.74
2017-09-19T01:49:21.753Z,93.79
2017-09-19T01:49:47.858Z,93.55
2017-09-19T01:50:13.981Z,93.12
2017-09-19T01:50:40.090Z,93.12
2017-09-19T01:51:06.213Z,93.12
2017-09-19T01:51:32.348Z,92.93
2017-09-19T01:51:58.465Z,92.64
2017-09-19T01:52:24.572Z,92.83
2017-09-19T01:52:50.692Z,92.93
2017-09-19T01:53:16.811Z,92.83
2017-09-19T01:53:42.933Z,92.54
2017-09-19T01:54:09.046Z,92.93
2017-09-19T01:54:35.169Z,92.74
2017-09-19T01:55:01.298Z,92.83
2017-09-19T01:55:27.421Z,92.54
2017-09-19T01:55:53.530Z,93.02
2017-09-19T01:56:19.668Z,92.74
2017-09-19T01:56:45.785Z,92.74
2017-09-19T01:57:11.890Z,92.64
2017-09-19T01:57:38.001Z,92.35
2017-09-19T01:58:04.124Z,92.83
2017-09-19T01:58:30.241Z,92.83
2017-09-19T01:58:56.349Z,92.93
2017-09-19T01:59:22.471Z,92.64
2017-09-19T01:59:48.583Z,92.64
2017-09-19T02:00:14.688Z,92.83
2017-09-19T02:00:40.811Z,92.83
2017-09-19T02:01:06.934Z,93.02
2017-09-19T02:01:33.050Z,92.35
2017-09-19T02:01:59.168Z,92.45
2017-09-19T02:02:25.314Z,92.35
2017-09-19T02:02:51.438Z,92.35
2017-09-19T02:03:17.559Z,92.07
2017-09-19T02:03:43.674Z,92.25
2017-09-19T02:04:09.791Z,92.07
2017-09-19T02:04:35.920Z,92.07
2017-09-19T02:05:02.040Z,92.16
2017-09-19T02:05:28.164Z,92.25
2017-09-19T02:05:54.280Z,92.35
2017-09-19T02:06:20.395Z,92.25
2017-09-19T02:06:46.516Z,92.07
2017-09-19T02:07:12.640Z,92.16
2017-09-19T02:07:38.760Z,92.45
2017-09-19T02:08:04.876Z,91.97
2017-09-19T02:08:30.999Z,91.88
2017-09-19T02:08:57.114Z,91.88
2017-09-19T02:09:23.244Z,91.78
2017-09-19T02:09:49.362Z,91.68
2017-09-19T02:10:15.487Z,91.88
2017-09-19T02:10:41.612Z,91.78
2017-09-19T02:11:07.736Z,91.88
2017-09-19T02:11:33.852Z,91.78
2017-09-19T02:11:59.978Z,91.68
2017-09-19T02:12:26.102Z,91.11
2017-09-19T02:12:52.219Z,91.2
2017-09-19T02:13:18.345Z,91.02
2017-09-19T02:13:44.464Z,91.11
2017-09-19T02:14:10.584Z,91.2
2017-09-19T02:14:36.710Z,91.2
2017-09-19T02:15:02.827Z,91.2
2017-09-19T02:15:28.950Z,91.2
2017-09-19T02:15:55.075Z,91.49
2017-09-19T02:16:21.190Z,91.49
2017-09-19T02:16:47.311Z,91.39
2017-09-19T02:17:13.434Z,90.34
2017-09-19T02:17:39.553Z,90.53
2017-09-19T02:18:05.674Z,90.63
2017-09-19T02:18:31.794Z,91.3
2017-09-19T02:18:57.921Z,91.39
2017-09-19T02:19:24.036Z,90.92
2017-09-19T02:19:50.162Z,90.53
2017-09-19T02:20:16.282Z,90.63
2017-09-19T02:20:42.400Z,91.02
2017-09-19T02:21:08.524Z,90.73
2017-09-19T02:21:34.640Z,90.82
2017-09-19T02:22:00.765Z,91.11
2017-09-19T02:22:26.883Z,91.11
2017-09-19T02:22:53.025Z,90.92
2017-09-19T02:23:19.148Z,90.82
2017-09-19T02:23:45.273Z,90.73
2017-09-19T02:24:11.394Z,90.92
2017-09-19T02:24:37.512Z,90.82
2017-09-19T02:25:03.635Z,90.73
2017-09-19T02:25:29.753Z,90.73
2017-09-19T02:25:55.869Z,90.63
2017-09-19T02:26:21.993Z,90.53
2017-09-19T02:26:48.114Z,90.73
2017-09-19T02:27:14.234Z,91.02
2017-09-19T02:27:40.363Z,90.63
2017-09-19T02:28:06.480Z,90.92
2017-09-19T02:28:32.604Z,91.02
2017-09-19T02:28:58.725Z,90.82
2017-09-19T02:29:24.848Z,91.02
2017-09-19T02:29:50.975Z,90.82
2017-09-19T02:30:17.092Z,90.73
2017-09-19T02:30:43.218Z,90.63
2017-09-19T02:31:09.349Z,91.49
2017-09-19T02:31:35.488Z,91.39
2017-09-19T02:32:01.617Z,91.3
2017-09-19T02:32:27.734Z,91.39
2017-09-19T02:32:53.850Z,91.2
2017-09-19T02:33:19.968Z,91.2
2017-09-19T02:33:46.093Z,91.59
2017-09-19T02:34:12.213Z,91.68
2017-09-19T02:34:38.330Z,91.68
2017-09-19T02:35:04.452Z,91.68
2017-09-19T02:35:30.570Z,91.59
2017-09-19T02:35:56.698Z,90.92
2017-09-19T02:36:22.811Z,91.49
2017-09-19T02:36:48.947Z,91.49
2017-09-19T02:37:15.073Z,91.49
2017-09-19T02:37:41.195Z,91.11
2017-09-19T02:38:07.313Z,91.2
2017-09-19T02:38:33.433Z,91.64
2017-09-19T02:38:59.551Z,91.06
2017-09-19T02:39:25.666Z,91.16
2017-09-19T02:39:51.791Z,91.06
2017-09-19T02:40:17.915Z,91.64
2017-09-19T02:40:44.031Z,91.74
2017-09-19T02:41:10.152Z,91.64
2017-09-19T02:41:36.277Z,91.74
2017-09-19T02:42:02.402Z,91.64
2017-09-19T02:42:28.517Z,91.45
2017-09-19T02:42:54.643Z,91.2
2017-09-19T02:43:20.757Z,91.2
2017-09-19T02:43:46.884Z,90.73
2017-09-19T02:44:13.003Z,91.02
2017-09-19T02:44:39.139Z,90.82
2017-09-19T02:45:05.286Z,90.73
2017-09-19T02:45:31.420Z,90.73
2017-09-19T02:45:57.542Z,90.63
2017-09-19T02:46:23.666Z,90.73
2017-09-19T02:46:49.787Z,90.25
2017-09-19T02:47:15.910Z,90.44
2017-09-19T02:47:42.050Z,90.34
2017-09-19T02:48:08.175Z,90.34
2017-09-19T02:48:34.297Z,90.16
2017-09-19T02:49:00.421Z,90.25
2017-09-19T02:49:26.545Z,90.16
2017-09-19T02:49:52.679Z,90.34
2017-09-19T02:50:18.821Z,90.16
2017-09-19T02:50:44.967Z,89.96
2017-09-19T02:51:11.083Z,90.25
2017-09-19T02:51:37.215Z,90.63
2017-09-19T02:52:03.349Z,90.16
2017-09-19T02:52:29.472Z,89.96
2017-09-19T02:52:55.598Z,89.96
2017-09-19T02:53:21.709Z,89.96
2017-09-19T02:53:47.835Z,89.87
2017-09-19T02:54:13.985Z,90.06
2017-09-19T02:54:40.109Z,90.25
2017-09-19T02:55:06.224Z,89.77
2017-09-19T02:55:32.346Z,89.77
2017-09-19T02:55:58.468Z,89.87
2017-09-19T02:56:24.584Z,90.06
2017-09-19T02:56:50.725Z,89.77
2017-09-19T02:57:16.852Z,89.48
2017-09-19T02:57:42.973Z,89.29
2017-09-19T02:58:09.089Z,89.39
2017-09-19T02:58:35.210Z,89.58
2017-09-19T02:59:01.335Z,89.67
2017-09-19T02:59:27.457Z,89.2
2017-09-19T02:59:53.598Z,89.2
2017-09-19T03:00:19.736Z,89.2
2017-09-19T03:00:45.861Z,89.29
2017-09-19T03:01:12.002Z,89.1
2017-09-19T03:01:38.142Z,88.81
2017-09-19T03:02:04.266Z,88.91
2017-09-19T03:02:30.386Z,89.1
2017-09-19T03:02:56.503Z,88.62
2017-09-19T03:03:22.624Z,88.34
2017-09-19T03:03:48.742Z,88.72
2017-09-19T03:04:14.868Z,88.53
2017-09-19T03:04:40.993Z,88.34
2017-09-19T03:05:07.131Z,88.81
2017-09-19T03:05:33.259Z,88.72
2017-09-19T03:05:59.402Z,88.53
2017-09-19T03:06:25.516Z,88.43
2017-09-19T03:06:51.649Z,88.72
2017-09-19T03:07:17.773Z,88.72
2017-09-19T03:07:43.939Z,88.62
2017-09-19T03:08:10.060Z,89.1
2017-09-19T03:08:36.184Z,88.72
2017-09-19T03:09:02.309Z,88.72
2017-09-19T03:09:28.429Z,88.81
2017-09-19T03:09:54.547Z,89.2
2017-09-19T03:10:20.673Z,88.81
2017-09-19T03:10:46.788Z,88.34
2017-09-19T03:11:12.908Z,88.72
2017-09-19T03:11:39.022Z,89.2
2017-09-19T03:12:05.145Z,89.01
2017-09-19T03:12:31.273Z,89.1
2017-09-19T03:12:57.382Z,88.91
2017-09-19T03:13:23.507Z,88.81
2017-09-19T03:13:49.618Z,89.01
2017-09-19T03:14:15.747Z,88.81
2017-09-19T03:14:41.880Z,88.91
2017-09-19T03:15:07.994Z,88.72
2017-09-19T03:15:34.136Z,88.91
2017-09-19T03:16:00.262Z,88.81
2017-09-19T03:16:26.384Z,88.62
2017-09-19T03:16:52.506Z,88.34
2017-09-19T03:17:18.648Z,88.81
2017-09-19T03:17:44.767Z,88.34
2017-09-19T03:18:10.895Z,88.91
2017-09-19T03:18:37.016Z,89.29
2017-09-19T03:19:03.133Z,89.1
2017-09-19T03:19:29.256Z,89.01
2017-09-19T03:19:55.378Z,89.1
2017-09-19T03:20:21.491Z,88.62
2017-09-19T03:20:47.614Z,88.62
2017-09-19T03:21:13.738Z,88.62
2017-09-19T03:21:39.854Z,88.91
2017-09-19T03:22:05.976Z,89.01
2017-09-19T03:22:32.101Z,88.81
2017-09-19T03:22:58.218Z,88.34
2017-09-19T03:23:24.343Z,88.81
2017-09-19T03:23:50.464Z,88.72
2017-09-19T03:24:16.581Z,88.53
2017-09-19T03:24:42.698Z,88.72
2017-09-19T03:25:08.844Z,88.43
2017-09-19T03:25:34.958Z,88.62
2017-09-19T03:26:01.085Z,88.34
2017-09-19T03:26:27.207Z,88.34
2017-09-19T03:26:53.328Z,87.86
2017-09-19T03:27:19.455Z,87.86
2017-09-19T03:27:45.570Z,87.76
2017-09-19T03:28:11.688Z,87.66
2017-09-19T03:28:37.814Z,87.66
2017-09-19T03:29:03.928Z,87.48
2017-09-19T03:29:30.048Z,88.15
2017-09-19T03:29:56.192Z,87.29
2017-09-19T03:30:22.315Z,87.95
2017-09-19T03:30:48.434Z,87.48
2017-09-19T03:31:14.556Z,87.86
2017-09-19T03:31:40.680Z,87.76
2017-09-19T03:32:06.801Z,87.95
2017-09-19T03:32:32.944Z,88.53
2017-09-19T03:32:59.061Z,87.86
2017-09-19T03:33:25.178Z,87.95
2017-09-19T03:33:51.302Z,88.15
2017-09-19T03:34:17.421Z,88.43
2017-09-19T03:34:43.543Z,88.24
2017-09-19T03:35:09.687Z,88.34
2017-09-19T03:35:35.803Z,88.53
2017-09-19T03:36:01.920Z,88.24
2017-09-19T03:36:28.037Z,88.15
2017-09-19T03:36:54.157Z,88.15
2017-09-19T03:37:20.288Z,88.05
2017-09-19T03:37:46.410Z,88.62
2017-09-19T03:38:12.530Z,88.53
2017-09-19T03:38:38.656Z,89.39
2017-09-19T03:39:04.776Z,88.72
2017-09-19T03:39:30.892Z,88.81
2017-09-19T03:39:57.022Z,89.01
2017-09-19T03:40:23.145Z,88.72
2017-09-19T03:40:49.259Z,88.72
2017-09-19T03:41:15.408Z,89.29
2017-09-19T03:41:41.525Z,89.39
2017-09-19T03:42:07.645Z,89.58
2017-09-19T03:42:33.789Z,89.2
2017-09-19T03:42:59.911Z,89.2
2017-09-19T03:43:26.029Z,89.39
2017-09-19T03:43:52.171Z,89.39
2017-09-19T03:44:18.299Z,89.2
2017-09-19T03:44:44.414Z,89.48
2017-09-19T03:45:10.541Z,89.39
2017-09-19T03:45:36.662Z,89.48
2017-09-19T03:46:02.779Z,89.29
2017-09-19T03:46:28.904Z,89.58
2017-09-19T03:46:55.021Z,89.67
2017-09-19T03:47:21.143Z,89.77
2017-09-19T03:47:47.264Z,90.06
2017-09-19T03:48:13.385Z,89.58
2017-09-19T03:48:39.507Z,89.96
2017-09-19T03:49:05.627Z,89.96
2017-09-19T03:49:31.754Z,89.87
2017-09-19T03:49:57.870Z,89.1
2017-09-19T03:50:24.012Z,89.29
2017-09-19T03:50:50.134Z,89.39
2017-09-19T03:51:16.250Z,89.96
2017-09-19T03:51:42.375Z,89.77
2017-09-19T03:52:08.496Z,89.67
2017-09-19T03:52:34.625Z,89.77
2017-09-19T03:53:00.741Z,90.34
2017-09-19T03:53:26.861Z,89.58
2017-09-19T03:53:52.984Z,89.48
2017-09-19T03:54:19.110Z,89.77
2017-09-19T03:54:45.227Z,89.96
2017-09-19T03:55:11.347Z,89.48
2017-09-19T03:55:37.469Z,89.58
2017-09-19T03:56:03.591Z,89.96
2017-09-19T03:56:29.704Z,89.58
2017-09-19T03:56:55.829Z,89.96
2017-09-19T03:57:21.945Z,90.06
2017-09-19T03:57:48.068Z,89.58
2017-09-19T03:58:14.189Z,89.39
2017-09-19T03:58:40.312Z,89.39
2017-09-19T03:59:06.442Z,89.39
2017-09-19T03:59:32.559Z,89.29
2017-09-19T03:59:58.674Z,88.91
2017-09-19T04:00:24.791Z,89.1
2017-09-19T04:00:50.910Z,88.62
2017-09-19T04:01:17.029Z,88.24
2017-09-19T04:01:43.155Z,88.72
2017-09-19T04:02:09.279Z,87.95
2017-09-19T04:02:35.399Z,87.57
2017-09-19T04:03:01.519Z,87.57
2017-09-19T04:03:27.641Z,87.19
2017-09-19T04:03:53.758Z,88.15
2017-09-19T04:04:19.883Z,87.29
2017-09-19T04:04:46.008Z,87.57
2017-09-19T04:05:12.124Z,87.76
2017-09-19T04:05:38.250Z,87.57
2017-09-19T04:06:04.365Z,87.48
2017-09-19T04:06:30.483Z,87.38
2017-09-19T04:06:56.611Z,87.29
2017-09-19T04:07:22.730Z,87.86
2017-09-19T04:07:48.855Z,87.76
2017-09-19T04:08:14.971Z,87.86
2017-09-19T04:08:41.097Z,87.76
2017-09-19T04:09:07.220Z,88.34
2017-09-19T04:09:33.340Z,88.24
2017-09-19T04:09:59.456Z,87.95
2017-09-19T04:10:25.579Z,88.24
2017-09-19T04:10:51.703Z,88.24
2017-09-19T04:11:17.820Z,88.53
2017-09-19T04:11:43.945Z,88.34
2017-09-19T04:12:10.066Z,88.43
2017-09-19T04:12:36.186Z,88.62
2017-09-19T04:13:02.326Z,87.95
2017-09-19T04:13:28.452Z,87.95
2017-09-19T04:13:54.568Z,88.15
2017-09-19T04:14:20.687Z,87.86
2017-09-19T04:14:46.804Z,87.95
2017-09-19T04:15:12.923Z,87.66
2017-09-19T04:15:39.049Z,87.38
2017-09-19T04:16:05.175Z,87.57
2017-09-19T04:16:31.301Z,87.29
2017-09-19T04:16:57.427Z,87.66
2017-09-19T04:17:23.566Z,87.38
2017-09-19T04:17:49.682Z,88.15
2017-09-19T04:18:15.807Z,87.76
2017-09-19T04:18:41.945Z,87.95
2017-09-19T04:19:08.066Z,87.95
2017-09-19T04:19:34.184Z,87.95
2017-09-19T04:20:00.322Z,87.86
2017-09-19T04:20:26.443Z,87.95
2017-09-19T04:20:52.568Z,87.86
2017-09-19T04:21:18.684Z,87.95
2017-09-19T04:21:44.805Z,87.86
2017-09-19T04:22:10.934Z,87.86
2017-09-19T04:22:37.051Z,87.95
2017-09-19T04:23:03.177Z,88.05
2017-09-19T04:23:29.324Z,88.53
2017-09-19T04:23:55.437Z,87.86
2017-09-19T04:24:21.569Z,88.62
2017-09-19T04:24:47.689Z,88.62
2017-09-19T04:25:13.825Z,88.62
2017-09-19T04:25:39.951Z,88.15
2017-09-19T04:26:06.065Z,88.53
2017-09-19T04:26:32.191Z,88.53
2017-09-19T04:26:58.314Z,88.62
2017-09-19T04:27:24.433Z,88.24
2017-09-19T04:27:50.557Z,88.72
2017-09-19T04:28:16.681Z,88.15
2017-09-19T04:28:42.814Z,88.43
2017-09-19T04:29:08.960Z,88.34
2017-09-19T04:29:35.060Z,88.72
2017-09-19T04:30:01.178Z,88.15
2017-09-19T04:30:27.296Z,88.24
2017-09-19T04:30:53.439Z,88.24
2017-09-19T04:31:19.557Z,88.53
2017-09-19T04:31:45.674Z,87.95
2017-09-19T04:32:11.800Z,87.95
2017-09-19T04:32:37.919Z,88.43
2017-09-19T04:33:04.046Z,88.72
2017-09-19T04:33:30.169Z,88.24
2017-09-19T04:33:56.282Z,88.43
2017-09-19T04:34:22.410Z,88.05
2017-09-19T04:34:48.527Z,88.43
2017-09-19T04:35:14.647Z,88.62
2017-09-19T04:35:40.770Z,88.15
2017-09-19T04:36:06.891Z,88.15
2017-09-19T04:36:33.010Z,88.24
2017-09-19T04:36:59.135Z,88.43
2017-09-19T04:37:25.252Z,87.76
2017-09-19T04:37:51.372Z,87.76
2017-09-19T04:38:17.497Z,88.72
2017-09-19T04:38:43.618Z,88.72
2017-09-19T04:39:09.739Z,88.72
2017-09-19T04:39:35.866Z,88.15
2017-09-19T04:40:01.979Z,88.53
2017-09-19T04:40:28.097Z,88.72
2017-09-19T04:40:54.220Z,88.91
2017-09-19T04:41:20.345Z,88.53
2017-09-19T04:41:46.464Z,88.62
2017-09-19T04:42:12.590Z,88.62
2017-09-19T04:42:38.707Z,88.72
2017-09-19T04:43:04.826Z,88.34
2017-09-19T04:43:30.953Z,88.15
2017-09-19T04:43:57.072Z,88.34
2017-09-19T04:44:23.198Z,88.24
2017-09-19T04:44:49.323Z,88.43
2017-09-19T04:45:15.441Z,88.53
2017-09-19T04:45:41.565Z,88.62
2017-09-19T04:46:07.683Z,88.53
2017-09-19T04:46:33.840Z,88.72
2017-09-19T04:46:59.931Z,88.43
2017-09-19T04:47:26.055Z,88.72
2017-09-19T04:47:52.173Z,88.15
2017-09-19T04:48:18.296Z,88.43
2017-09-19T04:48:44.411Z,88.34
2017-09-19T04:49:10.526Z,88.34
2017-09-19T04:49:36.655Z,88.53
2017-09-19T04:50:02.799Z,88.72
2017-09-19T04:50:28.917Z,88.53
2017-09-19T04:50:55.027Z,88.62
2017-09-19T04:51:21.152Z,88.15
2017-09-19T04:51:47.275Z,88.62
2017-09-19T04:52:13.419Z,88.34
2017-09-19T04:52:39.537Z,88.43
2017-09-19T04:53:05.659Z,88.53
2017-09-19T04:53:31.778Z,88.53
2017-09-19T04:53:57.902Z,88.81
2017-09-19T04:54:24.024Z,88.62
2017-09-19T04:54:50.141Z,88.53
2017-09-19T04:55:16.263Z,89.01
2017-09-19T04:55:42.389Z,88.72
2017-09-19T04:56:08.512Z,88.81
2017-09-19T04:56:34.661Z,88.81
2017-09-19T04:57:00.788Z,88.91
2017-09-19T04:57:26.906Z,88.72
2017-09-19T04:57:53.032Z,89.1
2017-09-19T04:58:19.156Z,89.29
2017-09-19T04:58:45.278Z,89.48
2017-09-19T04:59:11.413Z,89.39
2017-09-19T04:59:37.541Z,89.39
2017-09-19T05:00:03.656Z,89.29
2017-09-19T05:00:29.776Z,89.29
2017-09-19T05:00:55.919Z,89.29
2017-09-19T05:01:22.047Z,89.29
2017-09-19T05:01:48.163Z,89.2
2017-09-19T05:02:14.281Z,89.1
2017-09-19T05:02:40.407Z,89.29
2017-09-19T05:03:06.523Z,89.2
2017-09-19T05:03:32.650Z,89.48
2017-09-19T05:03:58.786Z,89.44
2017-09-19T05:04:24.909Z,89.34
2017-09-19T05:04:51.030Z,89.34
2017-09-19T05:05:17.157Z,89.25
2017-09-19T05:05:43.272Z,89.73
2017-09-19T05:06:09.401Z,89.67
2017-09-19T05:06:35.516Z,89.77
2017-09-19T05:07:01.660Z,89.63
2017-09-19T05:07:27.829Z,90.16
2017-09-19T05:07:53.946Z,90.11
2017-09-19T05:08:20.068Z,89.2
2017-09-19T05:08:46.189Z,89.2
2017-09-19T05:09:12.307Z,89.06
2017-09-19T05:09:38.421Z,89.77
2017-09-19T05:10:04.547Z,88.77
2017-09-19T05:10:30.662Z,89.29
2017-09-19T05:10:56.786Z,89.1
2017-09-19T05:11:22.909Z,89.29
2017-09-19T05:11:49.038Z,89.73
2017-09-19T05:12:15.150Z,89.92
2017-09-19T05:12:41.275Z,89.77
2017-09-19T05:13:07.402Z,89.96
2017-09-19T05:13:33.526Z,88.81
2017-09-19T05:13:59.642Z,89.25
2017-09-19T05:14:25.762Z,89.25
2017-09-19T05:14:51.889Z,89.25
2017-09-19T05:15:17.998Z,89.15
2017-09-19T05:15:44.121Z,89.39
2017-09-19T05:16:10.246Z,89.29
2017-09-19T05:16:36.369Z,89.2
2017-09-19T05:17:02.486Z,88.77
2017-09-19T05:17:28.614Z,88.72
2017-09-19T05:17:54.733Z,88.48
2017-09-19T05:18:20.854Z,89.06
2017-09-19T05:18:46.978Z,89.34
2017-09-19T05:19:13.124Z,89.34
2017-09-19T05:19:39.244Z,89.44
2017-09-19T05:20:05.358Z,89.06
2017-09-19T05:20:31.484Z,88.72
2017-09-19T05:20:57.602Z,88.81
2017-09-19T05:21:23.727Z,88.91
2017-09-19T05:21:49.844Z,88.72
2017-09-19T05:22:15.964Z,89.2
2017-09-19T05:22:42.087Z,88.72
2017-09-19T05:23:08.212Z,88.91
2017-09-19T05:23:34.327Z,88.72
2017-09-19T05:24:00.445Z,88.81
2017-09-19T05:24:26.596Z,88.72
2017-09-19T05:24:52.709Z,89.2
2017-09-19T05:25:18.832Z,88.53
2017-09-19T05:25:44.951Z,88.43
2017-09-19T05:26:11.073Z,89.1
2017-09-19T05:26:37.198Z,88.43
2017-09-19T05:27:03.313Z,88.43
2017-09-19T05:27:29.433Z,88.53
2017-09-19T05:27:55.558Z,88.72
2017-09-19T05:28:21.673Z,89.01
2017-09-19T05:28:47.795Z,88.53
2017-09-19T05:29:13.918Z,88.72
2017-09-19T05:29:40.042Z,88.72
2017-09-19T05:30:06.159Z,88.62
2017-09-19T05:30:32.283Z,88.62
2017-09-19T05:30:58.405Z,88.24
2017-09-19T05:31:24.539Z,88.15
2017-09-19T05:31:50.663Z,88.05
2017-09-19T05:32:16.787Z,88.72
2017-09-19T05:32:42.910Z,88.05
2017-09-19T05:33:09.033Z,88.15
2017-09-19T05:33:35.153Z,88.72
2017-09-19T05:34:01.290Z,88.81
2017-09-19T05:34:27.409Z,88.34
2017-09-19T05:34:53.547Z,88.53
2017-09-19T05:35:19.669Z,88.53
2017-09-19T05:35:45.785Z,88.34
2017-09-19T05:36:11.920Z,87.86
2017-09-19T05:36:38.043Z,87.95
2017-09-19T05:37:04.184Z,87.95